createdAt,value
2022-09-12T00:00:23.067Z,67.79
2022-09-12T00:02:53.827Z,68.06
2022-09-12T00:05:20.429Z,67.65
2022-09-12T00:07:46.847Z,67.63
2022-09-12T00:10:13.689Z,67.66
2022-09-12T00:12:40.222Z,67.54
2022-09-12T00:15:07.343Z,67.10
2022-09-12T00:17:35.343Z,67.44
2022-09-12T00:20:02.307Z,67.47
2022-09-12T00:22:28.745Z,67.51
2022-09-12T00:24:55.156Z,67.29
2022-09-12T00:27:21.525Z,67.32
2022-09-12T00:29:48.005Z,67.03
2022-09-12T00:32:14.344Z,66.98
2022-09-12T00:34:40.763Z,67.46
2022-09-12T00:37:07.188Z,67.06
2022-09-12T00:39:33.711Z,67.12
2022-09-12T00:42:00.141Z,67.09
2022-09-12T00:44:26.535Z,67.16
2022-09-12T00:46:55.220Z,67.73
2022-09-12T00:49:32.677Z,68.34
2022-09-12T00:52:04.819Z,68.45
2022-09-12T00:54:38.502Z,68.69
2022-09-12T00:57:09.468Z,68.57
2022-09-12T00:59:43.635Z,68.19
2022-09-12T01:02:11.421Z,67.50
2022-09-12T01:04:39.590Z,67.18
2022-09-12T01:07:07.422Z,67.55
2022-09-12T01:09:34.368Z,67.05
2022-09-12T01:12:02.570Z,66.99
2022-09-12T01:14:31.138Z,67.30
2022-09-12T01:16:57.890Z,67.43
2022-09-12T01:20:02.732Z,67.10
2022-09-12T01:22:43.760Z,67.36
2022-09-12T01:25:31.832Z,67.26
2022-09-12T01:28:51.036Z,67.43
2022-09-12T01:31:29.563Z,66.77
2022-09-12T01:34:22.424Z,67.28
2022-09-12T01:37:02.067Z,67.14
2022-09-12T01:39:34.925Z,67.27
2022-09-12T01:42:15.163Z,67.53
2022-09-12T01:44:52.698Z,67.38
2022-09-12T01:47:41.629Z,67.41
2022-09-12T01:50:19.031Z,67.07
2022-09-12T01:53:00.924Z,66.99
2022-09-12T01:55:44.047Z,67.26
2022-09-12T01:58:21.623Z,66.68
2022-09-12T02:01:00.200Z,66.82
2022-09-12T02:03:37.959Z,66.71
2022-09-12T02:06:11.488Z,66.71
2022-09-12T02:08:47.248Z,66.58
2022-09-12T02:11:13.871Z,66.38
2022-09-12T02:13:55.898Z,66.98
2022-09-12T02:16:29.392Z,66.63
2022-09-12T02:19:02.940Z,66.62
2022-09-12T02:21:32.976Z,66.93
2022-09-12T02:24:02.880Z,67.12
2022-09-12T02:26:35.344Z,67.25
2022-09-12T02:29:03.221Z,66.98
2022-09-12T02:31:44.803Z,66.92
2022-09-12T02:34:56.498Z,67.30
2022-09-12T02:37:37.762Z,66.43
2022-09-12T02:40:06.896Z,66.75
2022-09-12T02:42:33.399Z,66.51
2022-09-12T02:44:59.739Z,66.60
2022-09-12T02:47:53.153Z,67.17
2022-09-12T02:50:19.989Z,66.92
2022-09-12T02:52:46.597Z,66.88
2022-09-12T02:55:14.524Z,66.99
2022-09-12T02:57:40.913Z,67.01
2022-09-12T03:00:08.364Z,66.59
2022-09-12T03:02:58.330Z,67.11
2022-09-12T03:05:40.080Z,66.70
2022-09-12T03:08:37.299Z,66.89
2022-09-12T03:11:32.495Z,66.71
2022-09-12T03:14:24.068Z,67.03
2022-09-12T03:17:13.519Z,66.97
2022-09-12T03:19:59.584Z,66.39
2022-09-12T03:22:33.495Z,66.59
2022-09-12T03:25:05.968Z,66.58
2022-09-12T03:27:36.710Z,66.98
2022-09-12T03:30:05.896Z,67.08
2022-09-12T03:32:47.416Z,66.72
2022-09-12T03:35:15.086Z,66.97
2022-09-12T03:37:41.866Z,66.76
2022-09-12T03:40:12.067Z,67.06
2022-09-12T03:42:39.185Z,67.33
2022-09-12T03:45:06.862Z,66.92
2022-09-12T03:47:33.667Z,67.19
2022-09-12T03:50:00.218Z,67.10
2022-09-12T03:52:26.653Z,67.18
2022-09-12T03:54:52.974Z,67.11
2022-09-12T03:57:19.516Z,67.50
2022-09-12T03:59:45.851Z,67.33
2022-09-12T04:02:13.512Z,67.22
2022-09-12T04:04:43.299Z,67.07
2022-09-12T04:07:11.185Z,67.37
2022-09-12T04:09:37.605Z,67.16
2022-09-12T04:12:04.287Z,68.21
2022-09-12T04:14:30.727Z,67.94
2022-09-12T04:16:57.228Z,67.46
2022-09-12T04:19:23.670Z,67.78
2022-09-12T04:21:50.100Z,67.09
2022-09-12T04:24:16.679Z,67.61
2022-09-12T04:26:43.246Z,67.21
2022-09-12T04:29:12.450Z,67.83
2022-09-12T04:31:39.392Z,67.28
2022-09-12T04:34:07.019Z,67.47
2022-09-12T04:36:34.333Z,67.50
2022-09-12T04:39:01.859Z,68.18
2022-09-12T04:41:30.983Z,67.91
2022-09-12T04:44:03.379Z,68.07
2022-09-12T04:46:35.201Z,67.87
2022-09-12T04:49:01.970Z,68.25
2022-09-12T04:51:33.939Z,68.05
2022-09-12T04:54:02.825Z,67.96
2022-09-12T04:56:29.775Z,68.06
2022-09-12T04:59:01.096Z,68.36
2022-09-12T05:01:29.775Z,68.69
2022-09-12T05:03:57.823Z,68.87
2022-09-12T05:06:28.099Z,68.95
2022-09-12T05:08:56.003Z,68.55
2022-09-12T05:11:32.994Z,69.11
2022-09-12T05:14:08.119Z,68.37
2022-09-12T05:16:34.657Z,68.08
2022-09-12T05:19:01.077Z,68.43
2022-09-12T05:21:27.897Z,68.48
2022-09-12T05:23:55.872Z,68.75
2022-09-12T05:26:23.297Z,68.79
2022-09-12T05:28:51.322Z,68.75
2022-09-12T05:31:17.727Z,68.84
2022-09-12T05:33:48.157Z,68.82
2022-09-12T05:36:21.086Z,69.08
2022-09-12T05:38:47.921Z,68.98
2022-09-12T05:41:24.720Z,69.26
2022-09-12T05:43:56.216Z,69.21
2022-09-12T05:46:28.070Z,69.60
2022-09-12T05:48:56.692Z,69.82
2022-09-12T05:51:28.333Z,69.73
2022-09-12T05:53:59.857Z,69.62
2022-09-12T05:56:28.755Z,70.33
2022-09-12T05:58:58.620Z,70.47
2022-09-12T06:01:27.006Z,70.75
2022-09-12T06:03:55.701Z,71.11
2022-09-12T06:06:24.612Z,71.86
2022-09-12T06:08:53.274Z,71.83
2022-09-12T06:11:22.832Z,72.15
2022-09-12T06:13:51.125Z,72.44
2022-09-12T06:16:20.015Z,73.31
2022-09-12T06:18:51.781Z,73.70
2022-09-12T06:21:18.622Z,73.86
2022-09-12T06:23:48.065Z,73.90
2022-09-12T06:26:16.592Z,73.89
2022-09-12T06:28:47.558Z,74.32
2022-09-12T06:31:20.433Z,74.60
2022-09-12T06:33:49.477Z,75.21
2022-09-12T06:36:22.388Z,75.85
2022-09-12T06:38:54.550Z,75.82
2022-09-12T06:41:20.981Z,76.28
2022-09-12T06:43:47.328Z,77.19
2022-09-12T06:46:13.749Z,77.03
2022-09-12T06:48:42.119Z,77.95
2022-09-12T06:51:20.153Z,77.99
2022-09-12T06:53:47.703Z,77.29
2022-09-12T06:56:19.309Z,78.03
2022-09-12T06:58:47.364Z,78.39
2022-09-12T07:01:18.947Z,78.48
2022-09-12T07:03:50.564Z,78.79
2022-09-12T07:06:19.445Z,79.04
2022-09-12T07:08:46.628Z,79.17
2022-09-12T07:11:17.180Z,79.94
2022-09-12T07:13:45.806Z,79.85
2022-09-12T07:16:17.279Z,79.87
2022-09-12T07:19:03.266Z,79.48
2022-09-12T07:21:30.258Z,80.07
2022-09-12T07:24:00.178Z,79.79
2022-09-12T07:26:28.927Z,79.65
2022-09-12T07:29:08.237Z,80.03
2022-09-12T07:31:44.203Z,79.43
2022-09-12T07:34:11.139Z,80.18
2022-09-12T07:36:37.695Z,79.81
2022-09-12T07:39:04.137Z,78.77
2022-09-12T07:41:33.946Z,79.00
2022-09-12T07:44:02.146Z,78.42
2022-09-12T07:46:30.345Z,78.74
2022-09-12T07:48:58.139Z,78.55
2022-09-12T07:51:25.720Z,78.08
2022-09-12T07:53:52.435Z,77.61
2022-09-12T07:56:19.870Z,77.89
2022-09-12T07:58:46.850Z,77.65
2022-09-12T08:01:24.782Z,77.07
2022-09-12T08:03:55.286Z,77.33
2022-09-12T08:06:26.246Z,76.22
2022-09-12T08:08:54.901Z,75.36
2022-09-12T08:11:22.923Z,74.09
2022-09-12T08:13:55.442Z,74.36
2022-09-12T08:16:25.246Z,73.08
2022-09-12T08:18:51.928Z,73.60
2022-09-12T08:21:20.987Z,72.57
2022-09-12T08:23:51.392Z,71.22
2022-09-12T08:26:17.964Z,71.91
2022-09-12T08:28:45.680Z,70.40
2022-09-12T08:31:15.215Z,70.90
2022-09-12T08:33:41.779Z,70.42
2022-09-12T08:36:11.093Z,68.09
2022-09-12T08:38:42.811Z,67.30
2022-09-12T08:41:20.310Z,67.61
2022-09-12T08:44:09.183Z,66.57
2022-09-12T08:46:44.652Z,65.79
2022-09-12T08:49:15.270Z,64.57
2022-09-12T08:51:42.575Z,64.96
2022-09-12T08:54:23.684Z,65.04
2022-09-12T08:56:52.108Z,61.54
2022-09-12T08:59:18.468Z,60.91
2022-09-12T09:01:45.562Z,61.70
2022-09-12T09:04:29.907Z,62.88
2022-09-12T09:07:18.467Z,60.77
2022-09-12T09:10:08.610Z,59.38
2022-09-12T09:13:05.634Z,59.81
2022-09-12T09:15:48.574Z,58.81
2022-09-12T09:18:28.767Z,57.70
2022-09-12T09:21:41.164Z,58.46
2022-09-12T09:24:11.431Z,58.41
2022-09-12T09:26:53.135Z,58.97
2022-09-12T09:29:23.775Z,58.63
2022-09-12T09:31:54.558Z,57.76
2022-09-12T09:34:23.564Z,57.93
2022-09-12T09:37:10.328Z,58.29
2022-09-12T09:40:06.505Z,57.24
2022-09-12T09:42:45.630Z,55.57
2022-09-12T09:45:16.778Z,56.39
2022-09-12T09:47:54.388Z,56.31
2022-09-12T09:50:20.796Z,56.56
2022-09-12T09:52:49.305Z,55.47
2022-09-12T09:55:21.855Z,53.62
2022-09-12T09:57:48.482Z,51.76
2022-09-12T10:00:27.607Z,52.58
2022-09-12T10:03:04.761Z,52.42
2022-09-12T10:05:35.638Z,51.80
2022-09-12T10:08:03.627Z,51.16
2022-09-12T10:10:29.996Z,52.50
2022-09-12T10:13:24.533Z,51.95
2022-09-12T10:16:01.046Z,50.82
2022-09-12T10:18:39.807Z,49.57
2022-09-12T10:21:31.792Z,48.20
2022-09-12T10:24:23.057Z,48.62
2022-09-12T10:27:09.273Z,49.11
2022-09-12T10:29:48.416Z,45.22
2022-09-12T10:32:28.579Z,43.54
2022-09-12T10:35:05.772Z,43.82
2022-09-12T10:37:38.064Z,45.04
2022-09-12T10:40:08.009Z,45.20
2022-09-12T10:42:48.052Z,41.70
2022-09-12T10:45:32.082Z,41.68
2022-09-12T10:48:04.123Z,39.11
2022-09-12T10:50:43.372Z,39.74
2022-09-12T10:53:25.131Z,39.90
2022-09-12T10:56:12.263Z,40.34
2022-09-12T10:59:03.573Z,41.17
2022-09-12T11:01:36.343Z,39.74
2022-09-12T11:04:43.006Z,39.56
2022-09-12T11:07:26.926Z,38.27
2022-09-12T11:10:14.485Z,40.62
2022-09-12T11:12:57.478Z,39.90
2022-09-12T11:15:45.892Z,40.04
2022-09-12T11:18:40.196Z,40.25
2022-09-12T11:21:21.464Z,39.68
2022-09-12T11:24:11.733Z,40.58
2022-09-12T11:27:00.148Z,42.27
2022-09-12T11:29:38.538Z,39.83
2022-09-12T11:32:42.332Z,39.67
2022-09-12T11:35:18.186Z,39.67
2022-09-12T11:38:30.495Z,39.96
2022-09-12T11:41:02.393Z,40.03
2022-09-12T11:43:40.248Z,38.60
2022-09-12T11:46:14.079Z,38.03
2022-09-12T11:48:57.693Z,38.98
2022-09-12T11:51:29.459Z,38.54
2022-09-12T11:54:23.232Z,40.18
2022-09-12T11:56:57.330Z,40.01
2022-09-12T11:59:52.614Z,38.58
2022-09-12T12:03:00.266Z,37.87
2022-09-12T12:05:35.610Z,37.72
2022-09-12T12:08:05.233Z,40.36
2022-09-12T12:10:51.403Z,39.32
2022-09-12T12:13:23.573Z,39.31
2022-09-12T12:15:55.005Z,38.71
2022-09-12T12:18:32.684Z,38.14
2022-09-12T12:21:40.224Z,37.09
2022-09-12T12:24:09.510Z,36.21
2022-09-12T12:26:38.965Z,35.95
2022-09-12T12:29:18.010Z,36.05
2022-09-12T12:31:59.961Z,37.30
2022-09-12T12:34:28.344Z,38.70
2022-09-12T12:36:55.290Z,37.09
2022-09-12T12:39:45.937Z,35.19
2022-09-12T12:42:32.213Z,33.53
2022-09-12T12:45:00.156Z,32.22
2022-09-12T12:47:32.935Z,32.69
2022-09-12T12:50:05.448Z,33.65
2022-09-12T12:52:43.160Z,34.64
2022-09-12T12:55:16.290Z,35.94
2022-09-12T12:57:58.650Z,37.88
2022-09-12T13:00:25.165Z,39.53
2022-09-12T13:03:09.583Z,38.88
2022-09-12T13:05:42.686Z,40.43
2022-09-12T13:08:18.093Z,40.83
2022-09-12T13:10:58.028Z,42.56
2022-09-12T13:13:34.168Z,42.36
2022-09-12T13:16:00.618Z,41.78
2022-09-12T13:18:40.744Z,41.79
2022-09-12T13:21:21.627Z,43.46
2022-09-12T13:24:04.210Z,43.63
2022-09-12T13:26:40.301Z,42.77
2022-09-12T13:29:17.977Z,43.66
2022-09-12T13:31:47.903Z,42.57
2022-09-12T13:34:20.979Z,42.86
2022-09-12T13:37:24.905Z,42.11
2022-09-12T13:40:19.682Z,39.99
2022-09-12T13:42:49.551Z,38.40
2022-09-12T13:45:20.852Z,38.86
2022-09-12T13:47:55.359Z,39.51
2022-09-12T13:50:27.126Z,39.81
2022-09-12T13:53:00.268Z,39.65
2022-09-12T13:55:41.447Z,40.46
2022-09-12T13:58:17.060Z,41.71
2022-09-12T14:00:43.538Z,41.56
2022-09-12T14:03:49.647Z,43.61
2022-09-12T14:06:18.791Z,43.69
2022-09-12T14:08:47.978Z,44.73
2022-09-12T14:11:25.157Z,44.19
2022-09-12T14:13:52.548Z,43.57
2022-09-12T14:16:23.838Z,43.97
2022-09-12T14:18:51.827Z,45.13
2022-09-12T14:21:32.589Z,44.56
2022-09-12T14:24:00.683Z,44.96
2022-09-12T14:26:32.408Z,45.57
2022-09-12T14:29:00.378Z,43.68
2022-09-12T14:31:32.344Z,41.05
2022-09-12T14:34:14.782Z,42.29
2022-09-12T14:36:44.076Z,40.53
2022-09-12T14:39:39.690Z,41.43
2022-09-12T14:42:17.904Z,41.75
2022-09-12T14:44:58.561Z,41.81
2022-09-12T14:47:27.534Z,42.43
2022-09-12T14:49:54.494Z,42.16
2022-09-12T14:52:29.191Z,42.72
2022-09-12T14:55:00.190Z,42.59
2022-09-12T14:57:42.188Z,43.35
2022-09-12T15:00:11.873Z,44.00
2022-09-12T15:02:39.384Z,44.52
2022-09-12T15:05:08.534Z,42.95
2022-09-12T15:07:53.722Z,42.59
2022-09-12T15:10:27.686Z,42.88
2022-09-12T15:13:09.396Z,43.39
2022-09-12T15:15:37.809Z,43.43
2022-09-12T15:18:06.736Z,44.36
2022-09-12T15:20:35.990Z,44.91
2022-09-12T15:23:02.616Z,45.14
2022-09-12T15:25:29.048Z,45.30
2022-09-12T15:27:56.407Z,45.59
2022-09-12T15:30:22.754Z,45.32
2022-09-12T15:32:49.221Z,45.56
2022-09-12T15:35:22.469Z,44.85
2022-09-12T15:37:49.600Z,45.48
2022-09-12T15:40:16.296Z,45.95
2022-09-12T15:42:42.770Z,45.44
2022-09-12T15:45:18.397Z,46.08
2022-09-12T15:47:45.030Z,46.54
2022-09-12T15:50:11.564Z,46.47
2022-09-12T15:52:38.032Z,46.26
2022-09-12T15:55:05.849Z,46.71
2022-09-12T15:57:32.207Z,46.40
2022-09-12T15:59:58.779Z,46.17
2022-09-12T16:02:25.198Z,47.11
2022-09-12T16:04:54.607Z,46.76
2022-09-12T16:07:21.524Z,46.39
2022-09-12T16:09:48.043Z,47.09
2022-09-12T16:12:14.419Z,47.15
2022-09-12T16:14:40.800Z,47.59
2022-09-12T16:17:07.979Z,47.60
2022-09-12T16:19:35.055Z,47.90
2022-09-12T16:22:01.517Z,47.99
2022-09-12T16:24:27.926Z,48.53
2022-09-12T16:26:56.865Z,49.00
2022-09-12T16:29:26.956Z,48.48
2022-09-12T16:31:53.387Z,49.41
2022-09-12T16:34:19.751Z,49.68
2022-09-12T16:36:46.985Z,49.05
2022-09-12T16:39:13.488Z,48.93
2022-09-12T16:41:42.516Z,49.32
2022-09-12T16:44:10.092Z,49.15
2022-09-12T16:46:36.584Z,49.71
2022-09-12T16:49:05.892Z,50.06
2022-09-12T16:51:35.742Z,50.17
2022-09-12T16:54:02.437Z,50.50
2022-09-12T16:56:28.821Z,50.53
2022-09-12T16:58:55.629Z,50.45
2022-09-12T17:01:24.849Z,50.91
2022-09-12T17:03:56.468Z,51.30
2022-09-12T17:06:23.398Z,51.13
2022-09-12T17:08:52.080Z,51.49
2022-09-12T17:11:21.684Z,51.71
2022-09-12T17:14:04.389Z,52.07
2022-09-12T17:16:35.880Z,52.12
2022-09-12T17:19:03.156Z,52.21
2022-09-12T17:21:29.668Z,52.54
2022-09-12T17:23:56.244Z,52.65
2022-09-12T17:26:22.731Z,52.67
2022-09-12T17:28:49.532Z,52.68
2022-09-12T17:31:16.269Z,53.10
2022-09-12T17:33:43.392Z,53.03
2022-09-12T17:36:15.069Z,52.81
2022-09-12T17:38:42.808Z,52.99
2022-09-12T17:41:18.075Z,53.02
2022-09-12T17:43:46.276Z,53.07
2022-09-12T17:46:13.902Z,53.65
2022-09-12T17:48:40.360Z,53.35
2022-09-12T17:51:08.889Z,53.48
2022-09-12T17:53:35.414Z,53.54
2022-09-12T17:56:06.152Z,53.18
2022-09-12T17:58:33.184Z,53.34
2022-09-12T18:01:24.417Z,53.34
2022-09-12T18:03:54.826Z,53.58
2022-09-12T18:06:22.921Z,53.59
2022-09-12T18:08:49.291Z,53.88
2022-09-12T18:11:15.983Z,53.96
2022-09-12T18:13:42.491Z,53.93
2022-09-12T18:16:11.451Z,54.14
2022-09-12T18:18:38.501Z,54.11
2022-09-12T18:21:06.952Z,54.25
2022-09-12T18:23:34.372Z,54.31
2022-09-12T18:26:03.676Z,54.35
2022-09-12T18:28:32.849Z,54.15
2022-09-12T18:30:59.426Z,54.34
2022-09-12T18:33:25.939Z,54.46
2022-09-12T18:35:52.330Z,54.53
2022-09-12T18:38:18.807Z,55.14
2022-09-12T18:40:45.382Z,55.13
2022-09-12T18:43:11.786Z,55.06
2022-09-12T18:45:38.272Z,55.21
2022-09-12T18:48:06.023Z,55.07
2022-09-12T18:50:33.094Z,55.36
2022-09-12T18:52:59.973Z,55.56
2022-09-12T18:55:26.633Z,55.61
2022-09-12T18:57:54.704Z,55.35
2022-09-12T19:00:21.232Z,55.54
2022-09-12T19:02:47.728Z,55.63
2022-09-12T19:05:14.134Z,56.05
2022-09-12T19:07:41.108Z,56.28
2022-09-12T19:10:08.860Z,56.28
2022-09-12T19:12:35.293Z,56.37
2022-09-12T19:15:01.759Z,56.51
2022-09-12T19:17:28.126Z,56.86
2022-09-12T19:19:55.388Z,56.70
2022-09-12T19:22:22.126Z,56.82
2022-09-12T19:24:48.547Z,56.98
2022-09-12T19:27:15.984Z,57.56
2022-09-12T19:29:42.486Z,57.41
2022-09-12T19:32:08.986Z,57.28
2022-09-12T19:34:35.463Z,57.18
2022-09-12T19:37:01.958Z,57.45
2022-09-12T19:39:28.404Z,57.28
2022-09-12T19:41:54.765Z,57.70
2022-09-12T19:44:21.499Z,57.89
2022-09-12T19:46:48.038Z,57.55
2022-09-12T19:49:14.667Z,57.93
2022-09-12T19:51:41.186Z,57.75
2022-09-12T19:54:07.685Z,57.73
2022-09-12T19:56:34.246Z,57.52
2022-09-12T19:59:00.609Z,57.58
2022-09-12T20:01:30.437Z,57.79
2022-09-12T20:03:57.872Z,57.63
2022-09-12T20:06:25.133Z,57.66
2022-09-12T20:08:51.543Z,57.62
2022-09-12T20:11:19.807Z,57.71
2022-09-12T20:13:47.385Z,58.00
2022-09-12T20:16:21.999Z,58.12
2022-09-12T20:18:58.195Z,58.21
2022-09-12T20:21:31.041Z,58.77
2022-09-12T20:24:12.549Z,58.95
2022-09-12T20:26:39.740Z,59.17
2022-09-12T20:29:06.844Z,59.00
2022-09-12T20:31:35.504Z,59.18
2022-09-12T20:34:02.386Z,59.59
2022-09-12T20:36:28.786Z,59.79
2022-09-12T20:38:58.347Z,60.29
2022-09-12T20:41:25.966Z,60.34
2022-09-12T20:43:53.123Z,60.56
2022-09-12T20:46:23.459Z,60.54
2022-09-12T20:48:51.214Z,60.75
2022-09-12T20:51:18.840Z,61.05
2022-09-12T20:53:45.414Z,61.11
2022-09-12T20:56:11.807Z,61.35
2022-09-12T20:58:43.077Z,61.52
2022-09-12T21:01:11.311Z,61.51
2022-09-12T21:03:39.228Z,61.35
2022-09-12T21:06:06.811Z,61.52
2022-09-12T21:08:33.592Z,61.32
2022-09-12T21:11:00.014Z,61.65
2022-09-12T21:13:26.383Z,62.02
2022-09-12T21:15:59.915Z,62.12
2022-09-12T21:18:26.544Z,62.05
2022-09-12T21:20:54.182Z,62.41
2022-09-12T21:23:21.162Z,62.23
2022-09-12T21:25:52.382Z,62.36
2022-09-12T21:28:19.485Z,62.67
2022-09-12T21:30:48.628Z,62.87
2022-09-12T21:33:15.434Z,62.63
2022-09-12T21:35:41.818Z,62.67
2022-09-12T21:38:08.276Z,62.52
2022-09-12T21:40:34.639Z,63.15
2022-09-12T21:43:01.124Z,62.69
2022-09-12T21:45:27.792Z,62.40
2022-09-12T21:47:54.205Z,62.45
2022-09-12T21:50:20.547Z,62.44
2022-09-12T21:52:47.080Z,62.59
2022-09-12T21:55:13.935Z,62.30
2022-09-12T21:57:40.559Z,62.42
2022-09-12T22:00:10.782Z,62.41
2022-09-12T22:02:37.231Z,62.45
2022-09-12T22:05:04.146Z,62.61
2022-09-12T22:07:30.890Z,63.00
2022-09-12T22:09:57.327Z,62.98
2022-09-12T22:12:24.578Z,62.93
2022-09-12T22:14:51.319Z,62.87
2022-09-12T22:17:17.747Z,62.49
2022-09-12T22:19:44.119Z,62.46
2022-09-12T22:22:29.458Z,62.08
2022-09-12T22:24:55.991Z,62.29
2022-09-12T22:27:22.745Z,62.48
2022-09-12T22:29:50.612Z,62.39
2022-09-12T22:32:17.392Z,62.36
2022-09-12T22:34:43.882Z,62.13
2022-09-12T22:37:13.136Z,62.43
2022-09-12T22:39:40.580Z,62.27
2022-09-12T22:42:07.632Z,62.09
2022-09-12T22:44:34.127Z,61.93
2022-09-12T22:47:00.665Z,61.94
2022-09-12T22:49:27.126Z,61.91
2022-09-12T22:51:53.535Z,62.08
2022-09-12T22:54:19.954Z,61.87
2022-09-12T22:56:46.333Z,61.56
2022-09-12T22:59:13.126Z,61.45
2022-09-12T23:01:39.461Z,61.75
2022-09-12T23:04:06.112Z,61.93
2022-09-12T23:06:32.630Z,61.94
2022-09-12T23:08:59.056Z,61.76
2022-09-12T23:11:25.387Z,61.19
2022-09-12T23:13:51.852Z,61.45
2022-09-12T23:16:24.754Z,61.46
2022-09-12T23:18:51.458Z,61.44
2022-09-12T23:21:20.680Z,62.02
2022-09-12T23:23:47.413Z,61.78
2022-09-12T23:26:17.230Z,61.25
2022-09-12T23:28:49.793Z,61.22
2022-09-12T23:31:16.827Z,61.44
2022-09-12T23:33:44.203Z,61.63
2022-09-12T23:36:14.798Z,61.96
2022-09-12T23:38:43.331Z,61.81
2022-09-12T23:41:11.092Z,61.77
2022-09-12T23:43:37.698Z,62.35
2022-09-12T23:46:05.111Z,62.28
2022-09-12T23:48:32.231Z,62.49
2022-09-12T23:50:59.645Z,62.77
2022-09-12T23:53:26.254Z,61.43
2022-09-12T23:55:53.058Z,62.22
2022-09-12T23:58:21.455Z,61.81
